createdAt,value
2023-03-15T00:00:19.067Z,0.63
2023-03-15T00:02:22.290Z,0.80
2023-03-15T00:04:25.985Z,0.70
2023-03-15T00:06:27.782Z,0.68
2023-03-15T00:08:29.668Z,0.82
2023-03-15T00:10:31.246Z,0.50
2023-03-15T00:12:34.396Z,0.80
2023-03-15T00:14:36.877Z,0.60
2023-03-15T00:16:38.480Z,1.00
2023-03-15T00:18:40.456Z,0.57
2023-03-15T00:20:42.133Z,0.70
2023-03-15T00:22:43.811Z,0.50
2023-03-15T00:24:45.568Z,0.63
2023-03-15T00:26:47.183Z,0.80
2023-03-15T00:28:48.792Z,0.75
2023-03-15T00:30:50.501Z,0.60
2023-03-15T00:32:55.457Z,1.10
2023-03-15T00:34:57.395Z,0.60
2023-03-15T00:36:59.004Z,0.80
2023-03-15T00:39:00.629Z,0.82
2023-03-15T00:41:11.154Z,0.60
2023-03-15T00:43:17.809Z,0.60
2023-03-15T00:45:21.894Z,0.60
2023-03-15T00:47:23.856Z,0.52
2023-03-15T00:49:25.515Z,0.80
2023-03-15T00:51:27.158Z,0.73
2023-03-15T00:53:28.751Z,0.60
2023-03-15T00:55:30.499Z,0.60
2023-03-15T00:57:35.328Z,0.75
2023-03-15T00:59:37.001Z,0.82
2023-03-15T01:01:41.076Z,0.75
2023-03-15T01:03:43.816Z,0.80
2023-03-15T01:05:45.561Z,0.85
2023-03-15T01:07:47.372Z,0.70
2023-03-15T01:09:49.097Z,0.70
2023-03-15T01:11:51.519Z,0.75
2023-03-15T01:13:55.204Z,0.80
2023-03-15T01:15:56.955Z,0.82
2023-03-15T01:17:58.644Z,0.75
2023-03-15T01:20:00.602Z,0.75
2023-03-15T01:22:02.217Z,0.77
2023-03-15T01:24:03.990Z,0.60
2023-03-15T01:26:08.026Z,0.70
2023-03-15T01:28:09.650Z,0.70
2023-03-15T01:30:11.663Z,0.68
2023-03-15T01:32:13.462Z,0.90
2023-03-15T01:34:15.233Z,0.47
2023-03-15T01:36:17.933Z,0.85
2023-03-15T01:38:19.631Z,0.90
2023-03-15T01:40:21.339Z,1.00
2023-03-15T01:42:23.020Z,0.75
2023-03-15T01:44:44.915Z,0.70
2023-03-15T01:46:46.735Z,0.80
2023-03-15T01:48:54.896Z,0.80
2023-03-15T01:50:57.887Z,0.90
2023-03-15T01:52:59.810Z,0.90
2023-03-15T01:55:05.385Z,0.90
2023-03-15T01:57:15.787Z,0.57
2023-03-15T01:59:23.730Z,0.65
2023-03-15T02:01:25.876Z,0.90
2023-03-15T02:03:36.094Z,0.77
2023-03-15T02:05:46.102Z,0.90
2023-03-15T02:07:50.364Z,0.75
2023-03-15T02:10:10.852Z,0.90
2023-03-15T02:12:12.607Z,0.70
2023-03-15T02:14:15.080Z,0.90
2023-03-15T02:16:17.799Z,0.95
2023-03-15T02:18:20.756Z,0.80
2023-03-15T02:20:31.327Z,0.80
2023-03-15T02:23:00.089Z,0.63
2023-03-15T02:25:25.775Z,0.73
2023-03-15T02:27:32.179Z,0.75
2023-03-15T02:29:34.025Z,0.90
2023-03-15T02:31:38.096Z,0.77
2023-03-15T02:33:44.758Z,0.65
2023-03-15T02:35:46.533Z,0.75
2023-03-15T02:37:48.406Z,0.80
2023-03-15T02:39:50.060Z,0.70
2023-03-15T02:41:55.363Z,0.73
2023-03-15T02:44:03.420Z,0.80
2023-03-15T02:46:05.985Z,1.02
2023-03-15T02:48:09.009Z,0.80
2023-03-15T02:50:11.561Z,0.80
2023-03-15T02:52:13.998Z,0.80
2023-03-15T02:54:15.851Z,0.80
2023-03-15T02:56:17.579Z,0.98
2023-03-15T02:58:19.213Z,1.05
2023-03-15T03:00:21.228Z,0.73
2023-03-15T03:02:23.937Z,0.80
2023-03-15T03:04:25.674Z,0.70
2023-03-15T03:06:27.320Z,0.68
2023-03-15T03:08:29.021Z,0.50
2023-03-15T03:10:30.769Z,0.77
2023-03-15T03:12:33.362Z,0.70
2023-03-15T03:14:35.021Z,0.77
2023-03-15T03:16:36.735Z,0.60
2023-03-15T03:18:38.810Z,1.10
2023-03-15T03:20:40.515Z,0.80
2023-03-15T03:22:44.777Z,0.80
2023-03-15T03:24:46.764Z,0.88
2023-03-15T03:26:48.369Z,0.85
2023-03-15T03:28:50.006Z,0.95
2023-03-15T03:30:53.575Z,0.93
2023-03-15T03:32:55.303Z,0.75
2023-03-15T03:34:57.072Z,0.88
2023-03-15T03:36:58.795Z,1.02
2023-03-15T03:39:01.585Z,0.88
2023-03-15T03:41:03.196Z,0.70
2023-03-15T03:43:05.424Z,0.63
2023-03-15T03:45:08.089Z,0.60
2023-03-15T03:47:09.829Z,0.60
2023-03-15T03:49:11.541Z,0.80
2023-03-15T03:51:13.157Z,0.60
2023-03-15T03:53:14.788Z,0.90
2023-03-15T03:55:16.538Z,0.70
2023-03-15T03:57:18.159Z,0.60
2023-03-15T03:59:19.921Z,0.60
2023-03-15T04:01:22.172Z,0.80
2023-03-15T04:03:29.802Z,0.80
2023-03-15T04:05:31.470Z,1.17
2023-03-15T04:07:33.086Z,0.70
2023-03-15T04:09:37.388Z,0.80
2023-03-15T04:11:43.407Z,0.70
2023-03-15T04:13:45.487Z,0.80
2023-03-15T04:15:47.746Z,0.95
2023-03-15T04:17:55.859Z,1.02
2023-03-15T04:19:57.976Z,0.77
2023-03-15T04:21:59.572Z,0.65
2023-03-15T04:24:02.421Z,1.00
2023-03-15T04:26:05.667Z,0.63
2023-03-15T04:28:10.592Z,0.80
2023-03-15T04:30:12.909Z,0.90
2023-03-15T04:32:17.562Z,1.00
2023-03-15T04:34:19.279Z,0.80
2023-03-15T04:36:22.384Z,0.90
2023-03-15T04:38:27.132Z,0.80
2023-03-15T04:40:28.995Z,0.70
2023-03-15T04:42:30.773Z,0.60
2023-03-15T04:44:32.446Z,0.65
2023-03-15T04:46:34.295Z,0.70
2023-03-15T04:48:37.189Z,0.80
2023-03-15T04:50:38.862Z,0.50
2023-03-15T04:52:40.658Z,0.80
2023-03-15T04:54:42.282Z,0.88
2023-03-15T04:56:43.945Z,0.75
2023-03-15T04:58:45.576Z,0.60
2023-03-15T05:00:47.715Z,0.85
2023-03-15T05:02:54.742Z,0.85
2023-03-15T05:04:56.479Z,0.63
2023-03-15T05:06:58.174Z,0.73
2023-03-15T05:08:59.847Z,0.60
2023-03-15T05:11:02.036Z,0.70
2023-03-15T05:13:03.650Z,0.75
2023-03-15T05:15:05.865Z,1.10
2023-03-15T05:17:07.638Z,0.80
2023-03-15T05:19:09.598Z,1.00
2023-03-15T05:21:12.991Z,0.70
2023-03-15T05:23:14.636Z,0.70
2023-03-15T05:25:16.393Z,1.10
2023-03-15T05:27:18.037Z,1.02
2023-03-15T05:29:21.362Z,0.95
2023-03-15T05:31:23.041Z,1.17
2023-03-15T05:33:24.719Z,1.30
2023-03-15T05:35:26.666Z,1.35
2023-03-15T05:37:28.482Z,1.00
2023-03-15T05:39:34.470Z,1.33
2023-03-15T05:41:36.164Z,1.20
2023-03-15T05:43:37.869Z,1.80
2023-03-15T05:45:40.099Z,1.20
2023-03-15T05:47:41.731Z,1.10
2023-03-15T05:49:43.403Z,1.45
2023-03-15T05:51:45.048Z,1.73
2023-03-15T05:53:46.731Z,1.55
2023-03-15T05:55:48.346Z,1.40
2023-03-15T05:57:50.171Z,1.10
2023-03-15T05:59:53.105Z,1.40
2023-03-15T06:01:56.173Z,1.02
2023-03-15T06:03:57.886Z,1.55
2023-03-15T06:05:59.682Z,1.40
2023-03-15T06:08:01.353Z,1.30
2023-03-15T06:10:03.808Z,2.05
2023-03-15T06:12:05.830Z,1.30
2023-03-15T06:14:07.589Z,1.58
2023-03-15T06:16:09.202Z,1.30
2023-03-15T06:18:10.806Z,1.23
2023-03-15T06:20:13.052Z,1.23
2023-03-15T06:22:14.662Z,1.23
2023-03-15T06:24:16.413Z,1.73
2023-03-15T06:26:19.317Z,1.27
2023-03-15T06:28:21.044Z,1.10
2023-03-15T06:30:22.653Z,1.40
2023-03-15T06:32:24.564Z,1.75
2023-03-15T06:34:26.302Z,1.75
2023-03-15T06:36:28.163Z,1.63
2023-03-15T06:38:31.111Z,1.30
2023-03-15T06:40:32.729Z,1.02
2023-03-15T06:42:34.844Z,1.25
2023-03-15T06:44:36.703Z,1.15
2023-03-15T06:46:38.766Z,1.73
2023-03-15T06:48:40.699Z,2.30
2023-03-15T06:50:47.382Z,1.60
2023-03-15T06:52:49.574Z,2.15
2023-03-15T06:54:51.235Z,1.52
2023-03-15T06:56:52.835Z,1.65
2023-03-15T06:58:54.507Z,1.70
2023-03-15T07:00:56.412Z,1.27
2023-03-15T07:02:58.132Z,1.63
2023-03-15T07:04:59.794Z,1.35
2023-03-15T07:07:01.489Z,1.30
2023-03-15T07:09:04.484Z,1.45
2023-03-15T07:11:06.466Z,1.48
2023-03-15T07:13:09.230Z,1.55
2023-03-15T07:15:11.906Z,1.70
2023-03-15T07:17:13.938Z,1.58
2023-03-15T07:19:15.597Z,1.52
2023-03-15T07:21:17.269Z,1.88
2023-03-15T07:23:18.892Z,2.15
2023-03-15T07:25:23.939Z,1.48
2023-03-15T07:27:26.036Z,1.83
2023-03-15T07:29:27.706Z,1.67
2023-03-15T07:31:29.315Z,2.08
2023-03-15T07:33:32.728Z,2.03
2023-03-15T07:35:34.373Z,2.00
2023-03-15T07:37:36.081Z,1.75
2023-03-15T07:39:37.742Z,1.70
2023-03-15T07:41:39.496Z,1.83
2023-03-15T07:43:41.166Z,1.40
2023-03-15T07:45:42.927Z,1.95
2023-03-15T07:47:44.717Z,1.75
2023-03-15T07:49:46.782Z,2.03
2023-03-15T07:51:48.462Z,1.65
2023-03-15T07:53:50.652Z,1.90
2023-03-15T07:55:52.645Z,1.88
2023-03-15T07:57:54.564Z,1.58
2023-03-15T07:59:58.613Z,1.45
2023-03-15T08:02:02.816Z,1.42
2023-03-15T08:04:04.840Z,1.65
2023-03-15T08:06:06.842Z,1.25
2023-03-15T08:08:08.616Z,1.80
2023-03-15T08:10:10.851Z,1.98
2023-03-15T08:12:12.617Z,1.73
2023-03-15T08:14:14.256Z,1.98
2023-03-15T08:16:16.019Z,1.30
2023-03-15T08:18:17.762Z,1.70
2023-03-15T08:20:19.709Z,1.95
2023-03-15T08:22:21.326Z,1.35
2023-03-15T08:24:22.988Z,1.73
2023-03-15T08:26:24.666Z,1.50
2023-03-15T08:28:26.310Z,1.58
2023-03-15T08:30:28.198Z,1.73
2023-03-15T08:32:29.997Z,1.70
2023-03-15T08:34:34.131Z,1.60
2023-03-15T08:36:35.871Z,1.40
2023-03-15T08:38:37.850Z,1.52
2023-03-15T08:40:40.541Z,1.60
2023-03-15T08:42:42.209Z,1.77
2023-03-15T08:44:43.886Z,1.20
2023-03-15T08:46:45.655Z,1.55
2023-03-15T08:48:47.547Z,1.80
2023-03-15T08:50:49.347Z,1.23
2023-03-15T08:52:51.022Z,1.30
2023-03-15T08:54:52.749Z,1.50
2023-03-15T08:56:54.403Z,1.00
2023-03-15T08:58:56.142Z,1.35
2023-03-15T09:00:57.842Z,1.10
2023-03-15T09:03:01.809Z,1.10
2023-03-15T09:05:06.940Z,0.95
2023-03-15T09:07:08.760Z,1.35
2023-03-15T09:09:10.380Z,1.17
2023-03-15T09:11:12.034Z,1.85
2023-03-15T09:13:13.698Z,1.20
2023-03-15T09:15:15.901Z,1.27
2023-03-15T09:17:17.517Z,1.35
2023-03-15T09:19:19.355Z,1.00
2023-03-15T09:21:21.022Z,1.38
2023-03-15T09:23:22.790Z,1.13
2023-03-15T09:25:25.800Z,1.52
2023-03-15T09:27:32.614Z,1.23
2023-03-15T09:29:34.334Z,1.25
2023-03-15T09:31:36.040Z,1.13
2023-03-15T09:33:37.747Z,1.42
2023-03-15T09:35:39.387Z,1.40
2023-03-15T09:37:42.348Z,1.40
2023-03-15T09:39:44.091Z,1.25
2023-03-15T09:41:54.934Z,1.20
2023-03-15T09:44:17.835Z,1.20
2023-03-15T09:46:28.284Z,1.20
2023-03-15T09:48:43.974Z,0.90
2023-03-15T09:51:03.366Z,1.35
2023-03-15T09:53:20.497Z,1.42
2023-03-15T09:55:25.370Z,1.13
2023-03-15T09:57:39.088Z,1.60
2023-03-15T09:59:47.257Z,1.23
2023-03-15T10:01:52.968Z,1.40
2023-03-15T10:03:55.899Z,1.23
2023-03-15T10:06:03.005Z,1.50
2023-03-15T10:08:11.626Z,1.30
2023-03-15T10:10:23.236Z,1.98
2023-03-15T10:12:41.276Z,1.98
2023-03-15T10:15:09.904Z,2.70
2023-03-15T10:17:14.225Z,2.40
2023-03-15T10:19:47.121Z,2.67
2023-03-15T10:21:55.592Z,2.65
2023-03-15T10:23:58.498Z,2.50
2023-03-15T10:26:01.070Z,2.40
2023-03-15T10:28:15.929Z,2.28
2023-03-15T10:30:21.415Z,2.35
2023-03-15T10:32:28.262Z,2.28
2023-03-15T10:34:30.490Z,2.95
2023-03-15T10:36:32.158Z,2.40
2023-03-15T10:38:33.843Z,2.50
2023-03-15T10:40:43.533Z,2.40
2023-03-15T10:42:46.927Z,2.70
2023-03-15T10:44:48.619Z,2.63
2023-03-15T10:47:23.689Z,2.63
2023-03-15T10:49:36.959Z,2.33
2023-03-15T10:51:47.959Z,2.42
2023-03-15T10:54:02.276Z,3.75
2023-03-15T10:56:11.522Z,3.70
2023-03-15T10:58:21.095Z,4.13
2023-03-15T11:00:32.282Z,5.78
2023-03-15T11:02:33.989Z,6.13
2023-03-15T11:04:42.266Z,6.13
2023-03-15T11:06:51.193Z,8.38
2023-03-15T11:08:52.829Z,6.20
2023-03-15T11:10:59.509Z,7.03
2023-03-15T11:13:21.750Z,8.05
2023-03-15T11:15:23.386Z,7.78
2023-03-15T11:17:28.764Z,8.43
2023-03-15T11:19:33.870Z,8.05
2023-03-15T11:21:36.933Z,8.32
2023-03-15T11:23:42.278Z,7.47
2023-03-15T11:25:43.977Z,7.82
2023-03-15T11:27:51.901Z,7.30
2023-03-15T11:29:58.256Z,7.88
2023-03-15T11:32:03.553Z,6.80
2023-03-15T11:34:18.377Z,6.07
2023-03-15T11:36:23.256Z,6.35
2023-03-15T11:38:34.885Z,6.70
2023-03-15T11:40:51.013Z,6.07
2023-03-15T11:43:18.252Z,5.75
2023-03-15T11:45:38.728Z,6.10
2023-03-15T11:47:48.681Z,5.28
2023-03-15T11:49:55.390Z,5.22
2023-03-15T11:51:57.841Z,5.25
2023-03-15T11:54:28.600Z,5.90
2023-03-15T11:56:52.031Z,4.65
2023-03-15T11:59:24.189Z,4.82
2023-03-15T12:01:26.737Z,4.50
2023-03-15T12:03:37.011Z,5.00
2023-03-15T12:05:48.026Z,4.50
2023-03-15T12:08:15.458Z,5.10
2023-03-15T12:10:34.090Z,4.57
2023-03-15T12:12:36.844Z,4.00
2023-03-15T12:14:38.529Z,4.43
2023-03-15T12:16:46.106Z,4.40
2023-03-15T12:18:48.018Z,4.43
2023-03-15T12:20:57.377Z,4.03
2023-03-15T12:23:32.312Z,3.97
2023-03-15T12:25:58.744Z,3.80
2023-03-15T12:28:08.742Z,3.47
2023-03-15T12:30:22.314Z,3.92
2023-03-15T12:32:24.041Z,3.92
2023-03-15T12:34:39.906Z,3.38
2023-03-15T12:36:45.961Z,3.88
2023-03-15T12:39:00.589Z,3.53
2023-03-15T12:41:07.508Z,3.63
2023-03-15T12:43:12.585Z,3.40
2023-03-15T12:45:20.374Z,3.58
2023-03-15T12:47:22.110Z,2.85
2023-03-15T12:49:23.750Z,2.90
2023-03-15T12:51:44.206Z,2.78
2023-03-15T12:53:47.985Z,3.70
2023-03-15T12:55:54.145Z,3.15
2023-03-15T12:58:00.361Z,3.00
2023-03-15T13:00:12.885Z,2.92
2023-03-15T13:02:41.690Z,3.38
2023-03-15T13:04:49.639Z,2.65
2023-03-15T13:07:10.321Z,2.88
2023-03-15T13:09:59.899Z,3.15
2023-03-15T13:12:28.851Z,3.05
2023-03-15T13:14:43.093Z,2.65
2023-03-15T13:17:29.110Z,3.17
2023-03-15T13:19:41.782Z,3.05
2023-03-15T13:22:10.855Z,2.75
2023-03-15T13:24:21.744Z,2.42
2023-03-15T13:26:49.153Z,2.88
2023-03-15T13:29:00.310Z,2.42
2023-03-15T13:33:18.430Z,2.60
2023-03-15T13:35:21.092Z,2.10
2023-03-15T13:37:25.752Z,2.30
2023-03-15T13:39:30.436Z,2.60
2023-03-15T13:41:32.199Z,2.38
2023-03-15T13:43:36.808Z,2.38
2023-03-15T13:45:42.904Z,1.90
2023-03-15T13:47:46.227Z,3.10
2023-03-15T13:49:51.862Z,2.47
2023-03-15T13:51:54.171Z,2.35
2023-03-15T13:54:02.002Z,2.03
2023-03-15T13:56:08.758Z,2.40
2023-03-15T13:58:13.170Z,2.67
2023-03-15T14:00:19.001Z,3.10
2023-03-15T14:02:25.055Z,2.38
2023-03-15T14:04:27.772Z,2.33
2023-03-15T14:06:29.634Z,2.10
2023-03-15T14:08:32.885Z,2.75
2023-03-15T14:10:38.999Z,2.97
2023-03-15T14:12:40.715Z,2.17
2023-03-15T14:14:53.477Z,2.08
2023-03-15T14:17:05.397Z,2.25
2023-03-15T14:19:14.693Z,2.00
2023-03-15T14:21:19.815Z,2.22
2023-03-15T14:23:25.485Z,1.88
2023-03-15T14:25:27.263Z,2.40
2023-03-15T14:27:30.530Z,2.15
2023-03-15T14:29:35.509Z,2.28
2023-03-15T14:31:46.585Z,2.08
2023-03-15T14:35:57.401Z,2.20
2023-03-15T14:38:14.139Z,2.20
2023-03-15T14:40:36.119Z,1.83
2023-03-15T14:42:37.733Z,2.00
2023-03-15T14:44:39.375Z,2.25
2023-03-15T14:46:41.069Z,2.30
2023-03-15T14:48:42.956Z,1.95
2023-03-15T14:50:45.870Z,2.30
2023-03-15T14:52:49.250Z,2.22
2023-03-15T14:54:51.070Z,1.80
2023-03-15T14:56:52.718Z,1.83
2023-03-15T14:58:54.355Z,1.88
2023-03-15T15:00:57.941Z,2.20
2023-03-15T15:02:59.931Z,2.22
2023-03-15T15:05:04.111Z,2.15
2023-03-15T15:07:05.752Z,1.88
2023-03-15T15:09:07.418Z,2.10
2023-03-15T15:11:09.549Z,1.88
2023-03-15T15:13:26.781Z,1.73
2023-03-15T15:15:28.495Z,2.60
2023-03-15T15:17:30.202Z,2.20
2023-03-15T15:19:31.875Z,2.15
2023-03-15T15:21:34.208Z,2.38
2023-03-15T15:23:54.918Z,2.17
2023-03-15T15:26:04.892Z,2.25
2023-03-15T15:28:06.572Z,2.08
2023-03-15T15:30:16.541Z,2.28
2023-03-15T15:32:18.265Z,2.17
2023-03-15T15:34:20.007Z,2.33
2023-03-15T15:36:31.235Z,2.10
2023-03-15T15:38:38.912Z,1.60
2023-03-15T15:40:40.852Z,1.50
2023-03-15T15:42:42.497Z,2.00
2023-03-15T15:44:45.913Z,1.60
2023-03-15T15:46:47.677Z,2.00
2023-03-15T15:48:49.638Z,1.20
2023-03-15T15:50:51.304Z,2.45
2023-03-15T15:52:53.293Z,2.13
2023-03-15T15:54:54.948Z,1.98
2023-03-15T15:56:58.466Z,2.15
2023-03-15T15:59:04.328Z,1.65
2023-03-15T16:01:06.141Z,2.20
2023-03-15T16:03:17.468Z,1.98
2023-03-15T16:05:24.012Z,2.05
2023-03-15T16:07:25.704Z,1.88
2023-03-15T16:09:29.994Z,1.55
2023-03-15T16:11:32.242Z,1.52
2023-03-15T16:13:34.090Z,1.90
2023-03-15T16:15:35.727Z,2.10
2023-03-15T16:17:37.339Z,1.80
2023-03-15T16:19:39.011Z,1.40
2023-03-15T16:21:47.728Z,1.77
2023-03-15T16:24:06.341Z,2.55
2023-03-15T16:26:10.135Z,2.38
2023-03-15T16:28:11.822Z,1.80
2023-03-15T16:30:25.978Z,1.83
2023-03-15T16:32:42.926Z,1.60
2023-03-15T16:34:46.801Z,2.03
2023-03-15T16:36:54.700Z,1.70
2023-03-15T16:38:56.388Z,1.38
2023-03-15T16:41:00.205Z,1.60
2023-03-15T16:43:01.956Z,2.22
2023-03-15T16:45:13.177Z,1.50
2023-03-15T16:47:14.903Z,1.73
2023-03-15T16:49:16.741Z,1.42
2023-03-15T16:51:18.790Z,1.73
2023-03-15T16:53:20.759Z,1.42
2023-03-15T16:55:28.700Z,1.42
2023-03-15T16:57:30.351Z,1.52
2023-03-15T16:59:32.118Z,1.67
2023-03-15T17:01:33.977Z,1.27
2023-03-15T17:03:35.709Z,1.38
2023-03-15T17:05:37.404Z,1.70
2023-03-15T17:07:39.535Z,1.98
2023-03-15T17:09:47.498Z,2.47
2023-03-15T17:11:51.901Z,2.88
2023-03-15T17:13:53.549Z,2.75
2023-03-15T17:15:55.267Z,3.25
2023-03-15T17:17:57.583Z,2.47
2023-03-15T17:19:59.364Z,3.08
2023-03-15T17:22:01.128Z,2.72
2023-03-15T17:24:02.934Z,2.45
2023-03-15T17:26:05.781Z,2.78
2023-03-15T17:28:08.075Z,3.08
2023-03-15T17:30:18.412Z,2.25
2023-03-15T17:32:20.112Z,2.33
2023-03-15T17:34:22.546Z,1.67
2023-03-15T17:36:27.755Z,2.38
2023-03-15T17:38:32.548Z,1.92
2023-03-15T17:40:36.072Z,2.08
2023-03-15T17:42:38.360Z,1.88
2023-03-15T17:44:40.731Z,1.70
2023-03-15T17:46:42.993Z,2.00
2023-03-15T17:48:44.788Z,2.15
2023-03-15T17:50:46.520Z,1.98
2023-03-15T17:52:51.393Z,2.58
2023-03-15T17:54:53.018Z,2.15
2023-03-15T17:56:54.962Z,2.03
2023-03-15T17:58:56.901Z,1.85
2023-03-15T18:00:58.649Z,1.75
2023-03-15T18:03:01.077Z,1.70
2023-03-15T18:05:04.686Z,1.80
2023-03-15T18:07:06.349Z,2.13
2023-03-15T18:09:11.354Z,1.63
2023-03-15T18:11:28.732Z,1.30
2023-03-15T18:13:30.900Z,1.90
2023-03-15T18:15:32.877Z,2.30
2023-03-15T18:17:34.534Z,1.63
2023-03-15T18:19:36.247Z,1.58
2023-03-15T18:21:38.017Z,1.50
2023-03-15T18:23:39.884Z,1.85
2023-03-15T18:25:42.288Z,1.67
2023-03-15T18:27:44.064Z,1.58
2023-03-15T18:29:45.697Z,1.70
2023-03-15T18:31:47.343Z,1.83
2023-03-15T18:33:50.342Z,1.52
2023-03-15T18:35:53.480Z,1.83
2023-03-15T18:37:57.413Z,1.30
2023-03-15T18:39:59.101Z,1.25
2023-03-15T18:42:00.926Z,1.40
2023-03-15T18:44:02.614Z,1.30
2023-03-15T18:46:04.333Z,1.65
2023-03-15T18:48:06.502Z,1.30
2023-03-15T18:50:10.914Z,1.52
2023-03-15T18:52:15.855Z,1.48
2023-03-15T18:54:17.462Z,1.70
2023-03-15T18:56:22.264Z,1.40
2023-03-15T18:58:23.947Z,1.27
2023-03-15T19:00:29.474Z,1.50
2023-03-15T19:02:31.282Z,1.40
2023-03-15T19:04:33.314Z,1.23
2023-03-15T19:06:35.304Z,1.67
2023-03-15T19:08:37.257Z,1.48
2023-03-15T19:10:38.942Z,1.30
2023-03-15T19:12:41.970Z,1.20
2023-03-15T19:14:43.774Z,1.80
2023-03-15T19:16:45.412Z,1.30
2023-03-15T19:18:49.392Z,1.40
2023-03-15T19:20:54.769Z,1.33
2023-03-15T19:22:56.932Z,1.38
2023-03-15T19:24:58.688Z,1.60
2023-03-15T19:27:00.348Z,1.52
2023-03-15T19:29:03.969Z,1.23
2023-03-15T19:31:06.215Z,1.40
2023-03-15T19:33:08.685Z,1.23
2023-03-15T19:35:10.636Z,1.52
2023-03-15T19:37:12.663Z,1.50
2023-03-15T19:39:14.401Z,1.60
2023-03-15T19:41:16.066Z,1.30
2023-03-15T19:43:20.396Z,1.35
2023-03-15T19:45:22.143Z,1.40
2023-03-15T19:47:23.748Z,1.33
2023-03-15T19:49:25.386Z,1.92
2023-03-15T19:51:27.681Z,1.80
2023-03-15T19:53:30.320Z,2.83
2023-03-15T19:55:34.609Z,2.63
2023-03-15T19:57:36.337Z,3.25
2023-03-15T19:59:39.848Z,3.25
2023-03-15T20:01:42.228Z,2.38
2023-03-15T20:03:44.050Z,2.78
2023-03-15T20:05:45.717Z,3.03
2023-03-15T20:07:50.565Z,2.65
2023-03-15T20:09:53.716Z,2.65
2023-03-15T20:11:55.569Z,2.17
2023-03-15T20:13:57.247Z,2.75
2023-03-15T20:15:59.123Z,2.67
2023-03-15T20:18:02.396Z,2.53
2023-03-15T20:20:10.531Z,2.40
2023-03-15T20:22:12.291Z,2.33
2023-03-15T20:24:14.064Z,2.17
2023-03-15T20:26:17.656Z,2.03
2023-03-15T20:28:19.352Z,2.47
2023-03-15T20:30:21.494Z,2.42
2023-03-15T20:32:23.268Z,2.28
2023-03-15T20:34:24.945Z,2.08
2023-03-15T20:36:27.123Z,2.15
2023-03-15T20:38:29.436Z,1.70
2023-03-15T20:40:32.786Z,2.22
2023-03-15T20:42:34.946Z,1.65
2023-03-15T20:44:36.830Z,2.03
2023-03-15T20:46:39.820Z,2.10
2023-03-15T20:48:41.737Z,2.00
2023-03-15T20:50:43.499Z,1.95
2023-03-15T20:52:45.094Z,1.73
2023-03-15T20:54:46.770Z,2.00
2023-03-15T20:56:48.438Z,1.95
2023-03-15T20:58:50.112Z,2.10
2023-03-15T21:00:51.826Z,2.20
2023-03-15T21:02:53.509Z,1.75
2023-03-15T21:04:55.140Z,1.65
2023-03-15T21:06:57.174Z,2.15
2023-03-15T21:08:58.804Z,1.92
2023-03-15T21:11:01.725Z,2.05
2023-03-15T21:13:09.499Z,1.70
2023-03-15T21:15:17.757Z,1.90
2023-03-15T21:17:19.672Z,1.80
2023-03-15T21:19:22.845Z,1.88
2023-03-15T21:21:24.499Z,1.90
2023-03-15T21:23:31.175Z,1.88
2023-03-15T21:25:32.830Z,2.05
2023-03-15T21:27:34.562Z,1.92
2023-03-15T21:29:37.462Z,1.80
2023-03-15T21:31:39.223Z,1.73
2023-03-15T21:33:40.928Z,1.75
2023-03-15T21:35:43.300Z,1.77
2023-03-15T21:37:45.590Z,1.83
2023-03-15T21:39:47.276Z,1.65
2023-03-15T21:41:49.065Z,1.55
2023-03-15T21:43:50.715Z,1.73
2023-03-15T21:45:52.472Z,2.15
2023-03-15T21:47:54.161Z,1.58
2023-03-15T21:49:55.739Z,1.70
2023-03-15T21:51:57.490Z,1.92
2023-03-15T21:53:59.261Z,1.75
2023-03-15T21:56:01.950Z,1.85
2023-03-15T21:58:07.316Z,1.85
2023-03-15T22:00:11.978Z,2.47
2023-03-15T22:02:14.230Z,1.50
2023-03-15T22:04:16.097Z,1.73
2023-03-15T22:06:17.958Z,1.92
2023-03-15T22:08:19.905Z,1.77
2023-03-15T22:10:22.787Z,1.80
2023-03-15T22:12:27.527Z,1.80
2023-03-15T22:14:29.184Z,1.92
2023-03-15T22:16:33.164Z,1.77
2023-03-15T22:18:35.135Z,1.98
2023-03-15T22:20:37.807Z,2.00
2023-03-15T22:22:39.423Z,1.63
2023-03-15T22:24:41.723Z,1.80
2023-03-15T22:26:43.329Z,1.88
2023-03-15T22:28:44.974Z,1.80
2023-03-15T22:30:48.904Z,2.10
2023-03-15T22:32:50.591Z,1.75
2023-03-15T22:34:52.301Z,1.88
2023-03-15T22:36:54.254Z,1.73
2023-03-15T22:38:55.905Z,1.77
2023-03-15T22:41:03.246Z,1.88
2023-03-15T22:43:06.029Z,1.65
2023-03-15T22:45:08.479Z,1.92
2023-03-15T22:47:10.319Z,1.90
2023-03-15T22:49:12.274Z,1.77
2023-03-15T22:51:15.778Z,1.75
2023-03-15T22:53:17.521Z,1.95
2023-03-15T22:55:20.590Z,2.00
2023-03-15T22:57:22.530Z,2.00
2023-03-15T22:59:28.799Z,1.88
2023-03-15T23:01:30.825Z,1.70
2023-03-15T23:03:32.596Z,1.77
2023-03-15T23:05:34.766Z,2.05
2023-03-15T23:07:36.660Z,1.40
2023-03-15T23:09:38.295Z,1.65
2023-03-15T23:11:39.905Z,1.90
2023-03-15T23:13:42.389Z,1.83
2023-03-15T23:15:44.251Z,1.75
2023-03-15T23:17:46.824Z,2.15
2023-03-15T23:19:48.590Z,1.70
2023-03-15T23:21:50.269Z,1.90
2023-03-15T23:23:51.928Z,2.25
2023-03-15T23:25:54.043Z,1.80
2023-03-15T23:27:56.829Z,1.80
2023-03-15T23:29:58.493Z,1.90
2023-03-15T23:32:00.504Z,1.63
2023-03-15T23:34:02.307Z,1.40
2023-03-15T23:36:05.885Z,2.05
2023-03-15T23:38:08.537Z,1.92
2023-03-15T23:40:11.579Z,1.85
2023-03-15T23:42:13.809Z,1.92
2023-03-15T23:44:16.160Z,2.17
2023-03-15T23:46:17.838Z,2.85
2023-03-15T23:48:20.300Z,2.60
2023-03-15T23:50:25.879Z,2.40
2023-03-15T23:52:28.853Z,2.67
2023-03-15T23:54:31.192Z,2.15
2023-03-15T23:56:33.089Z,2.15
2023-03-15T23:58:34.767Z,2.80
